createdAt,value
2023-01-28T00:00:32.078Z,7.60
2023-01-28T00:02:58.523Z,7.28
2023-01-28T00:05:24.947Z,7.32
2023-01-28T00:07:51.960Z,6.70
2023-01-28T00:10:18.453Z,6.10
2023-01-28T00:12:45.065Z,6.20
2023-01-28T00:15:11.762Z,6.47
2023-01-28T00:17:38.580Z,6.03
2023-01-28T00:20:05.496Z,6.28
2023-01-28T00:22:32.135Z,6.32
2023-01-28T00:24:59.068Z,6.63
2023-01-28T00:27:25.437Z,5.90
2023-01-28T00:29:51.802Z,7.15
2023-01-28T00:32:18.176Z,6.95
2023-01-28T00:34:44.506Z,6.68
2023-01-28T00:37:10.960Z,6.97
2023-01-28T00:39:37.442Z,7.32
2023-01-28T00:42:03.894Z,7.35
2023-01-28T00:44:30.219Z,7.45
2023-01-28T00:46:56.691Z,7.03
2023-01-28T00:49:23.054Z,7.68
2023-01-28T00:51:49.549Z,6.65
2023-01-28T00:54:16.115Z,7.35
2023-01-28T00:56:42.488Z,8.13
2023-01-28T00:59:08.831Z,7.43
2023-01-28T01:01:35.307Z,7.35
2023-01-28T01:04:04.482Z,8.45
2023-01-28T01:06:32.159Z,7.63
2023-01-28T01:08:58.764Z,7.15
2023-01-28T01:11:25.607Z,7.53
2023-01-28T01:13:56.745Z,8.50
2023-01-28T01:16:24.815Z,8.02
2023-01-28T01:18:52.595Z,6.78
2023-01-28T01:21:20.206Z,7.22
2023-01-28T01:23:46.953Z,6.68
2023-01-28T01:26:13.687Z,8.10
2023-01-28T01:28:40.205Z,7.07
2023-01-28T01:31:08.591Z,8.35
2023-01-28T01:33:35.039Z,8.25
2023-01-28T01:36:01.567Z,8.20
2023-01-28T01:38:28.558Z,8.20
2023-01-28T01:40:59.535Z,8.23
2023-01-28T01:43:26.952Z,7.43
2023-01-28T01:45:59.127Z,7.43
2023-01-28T01:48:33.847Z,8.02
2023-01-28T01:51:06.422Z,7.80
2023-01-28T01:53:32.865Z,7.65
2023-01-28T01:56:01.303Z,8.73
2023-01-28T01:58:29.692Z,8.80
2023-01-28T02:00:56.069Z,8.85
2023-01-28T02:03:26.837Z,8.48
2023-01-28T02:05:53.428Z,9.85
2023-01-28T02:08:22.864Z,9.38
2023-01-28T02:10:52.200Z,8.60
2023-01-28T02:13:19.572Z,9.80
2023-01-28T02:15:46.179Z,9.27
2023-01-28T02:18:12.886Z,8.73
2023-01-28T02:21:05.534Z,9.65
2023-01-28T02:23:55.405Z,9.63
2023-01-28T02:26:39.948Z,9.40
2023-01-28T02:29:12.552Z,8.60
2023-01-28T02:31:41.709Z,9.48
2023-01-28T02:34:11.230Z,8.73
2023-01-28T02:36:50.533Z,8.90
2023-01-28T02:39:19.059Z,8.15
2023-01-28T02:41:59.757Z,7.75
2023-01-28T02:44:26.173Z,7.63
2023-01-28T02:47:11.930Z,7.10
2023-01-28T02:49:50.482Z,7.38
2023-01-28T02:52:48.744Z,8.35
2023-01-28T02:55:39.342Z,8.85
2023-01-28T02:58:10.428Z,7.72
2023-01-28T03:00:59.427Z,8.90
2023-01-28T03:03:33.307Z,7.88
2023-01-28T03:06:09.176Z,8.32
2023-01-28T03:09:01.417Z,7.80
2023-01-28T03:11:47.363Z,7.90
2023-01-28T03:14:33.462Z,8.00
2023-01-28T03:17:20.070Z,8.13
2023-01-28T03:20:05.392Z,8.82
2023-01-28T03:22:53.047Z,8.63
2023-01-28T03:25:39.936Z,8.35
2023-01-28T03:28:27.336Z,8.55
2023-01-28T03:31:18.158Z,8.00
2023-01-28T03:34:03.540Z,7.82
2023-01-28T03:36:53.269Z,7.15
2023-01-28T03:39:30.190Z,7.20
2023-01-28T03:41:56.516Z,6.95
2023-01-28T03:44:42.543Z,7.22
2023-01-28T03:47:11.284Z,6.20
2023-01-28T03:49:49.247Z,6.90
2023-01-28T03:52:16.583Z,7.20
2023-01-28T03:54:42.965Z,6.70
2023-01-28T03:57:09.309Z,7.25
2023-01-28T03:59:35.691Z,6.10
2023-01-28T04:02:06.320Z,6.85
2023-01-28T04:04:33.024Z,6.65
2023-01-28T04:06:59.589Z,6.60
2023-01-28T04:09:26.028Z,6.68
2023-01-28T04:11:52.402Z,6.13
2023-01-28T04:14:19.216Z,5.78
2023-01-28T04:16:45.771Z,6.05
2023-01-28T04:19:12.920Z,6.10
2023-01-28T04:21:39.492Z,5.18
2023-01-28T04:24:06.379Z,5.78
2023-01-28T04:26:32.875Z,5.75
2023-01-28T04:28:59.268Z,5.70
2023-01-28T04:31:25.664Z,5.15
2023-01-28T04:33:52.092Z,4.78
2023-01-28T04:36:18.530Z,5.72
2023-01-28T04:38:44.935Z,6.55
2023-01-28T04:41:11.350Z,5.05
2023-01-28T04:43:37.720Z,6.00
2023-01-28T04:46:04.125Z,5.65
2023-01-28T04:48:31.517Z,5.68
2023-01-28T04:50:57.882Z,5.90
2023-01-28T04:53:24.221Z,5.85
2023-01-28T04:55:50.569Z,5.50
2023-01-28T04:58:16.962Z,5.80
2023-01-28T05:00:43.465Z,5.80
2023-01-28T05:03:09.912Z,5.18
2023-01-28T05:05:36.454Z,6.55
2023-01-28T05:08:02.977Z,5.63
2023-01-28T05:10:29.379Z,5.43
2023-01-28T05:12:55.766Z,6.28
2023-01-28T05:15:22.352Z,6.68
2023-01-28T05:17:48.699Z,5.65
2023-01-28T05:20:15.213Z,6.03
2023-01-28T05:22:41.756Z,6.90
2023-01-28T05:25:08.525Z,6.63
2023-01-28T05:27:34.958Z,5.53
2023-01-28T05:30:01.305Z,5.80
2023-01-28T05:32:27.805Z,5.97
2023-01-28T05:34:54.361Z,5.65
2023-01-28T05:37:20.966Z,5.97
2023-01-28T05:39:47.330Z,6.00
2023-01-28T05:42:15.582Z,5.45
2023-01-28T05:44:42.024Z,5.45
2023-01-28T05:47:08.366Z,5.25
2023-01-28T05:49:34.994Z,5.57
2023-01-28T05:52:02.199Z,6.25
2023-01-28T05:54:28.851Z,5.55
2023-01-28T05:56:55.283Z,5.57
2023-01-28T05:59:21.687Z,5.85
2023-01-28T06:01:48.566Z,5.30
2023-01-28T06:04:15.113Z,6.10
2023-01-28T06:06:41.587Z,5.72
2023-01-28T06:09:07.968Z,6.35
2023-01-28T06:11:34.368Z,5.20
2023-01-28T06:14:00.920Z,5.68
2023-01-28T06:16:27.304Z,5.15
2023-01-28T06:18:53.638Z,5.95
2023-01-28T06:21:19.983Z,6.25
2023-01-28T06:23:46.348Z,5.32
2023-01-28T06:26:12.738Z,5.53
2023-01-28T06:28:39.167Z,5.43
2023-01-28T06:31:05.931Z,5.03
2023-01-28T06:33:32.497Z,6.05
2023-01-28T06:35:58.907Z,6.40
2023-01-28T06:38:25.314Z,5.90
2023-01-28T06:40:52.639Z,4.95
2023-01-28T06:43:18.991Z,5.80
2023-01-28T06:45:45.557Z,5.68
2023-01-28T06:48:12.532Z,5.30
2023-01-28T06:50:38.871Z,5.60
2023-01-28T06:53:05.272Z,5.60
2023-01-28T06:55:31.761Z,5.72
2023-01-28T06:57:58.158Z,5.72
2023-01-28T07:00:24.569Z,4.60
2023-01-28T07:02:51.110Z,5.65
2023-01-28T07:05:17.925Z,5.57
2023-01-28T07:07:45.447Z,5.70
2023-01-28T07:10:11.827Z,6.00
2023-01-28T07:12:38.541Z,5.68
2023-01-28T07:15:05.237Z,5.60
2023-01-28T07:17:31.644Z,5.20
2023-01-28T07:19:58.085Z,5.68
2023-01-28T07:22:24.473Z,6.32
2023-01-28T07:24:50.827Z,5.80
2023-01-28T07:27:17.212Z,5.97
2023-01-28T07:29:43.605Z,6.35
2023-01-28T07:32:10.053Z,5.85
2023-01-28T07:34:39.895Z,5.60
2023-01-28T07:37:06.771Z,5.63
2023-01-28T07:39:33.348Z,6.10
2023-01-28T07:41:59.703Z,6.13
2023-01-28T07:44:26.049Z,5.35
2023-01-28T07:46:52.607Z,6.20
2023-01-28T07:49:19.069Z,6.10
2023-01-28T07:51:47.029Z,6.07
2023-01-28T07:54:13.439Z,5.55
2023-01-28T07:56:39.772Z,5.50
2023-01-28T07:59:06.093Z,5.60
2023-01-28T08:01:32.554Z,6.20
2023-01-28T08:03:59.057Z,6.43
2023-01-28T08:06:25.476Z,6.00
2023-01-28T08:08:51.839Z,6.07
2023-01-28T08:11:18.192Z,5.60
2023-01-28T08:13:44.563Z,6.25
2023-01-28T08:16:10.939Z,9.05
2023-01-28T08:18:37.621Z,6.70
2023-01-28T08:21:05.163Z,6.03
2023-01-28T08:23:34.440Z,6.78
2023-01-28T08:26:01.017Z,6.65
2023-01-28T08:28:27.428Z,5.93
2023-01-28T08:30:53.877Z,6.30
2023-01-28T08:33:20.528Z,6.95
2023-01-28T08:35:47.075Z,5.82
2023-01-28T08:38:15.335Z,6.35
2023-01-28T08:40:41.795Z,6.30
2023-01-28T08:43:08.191Z,6.13
2023-01-28T08:45:34.667Z,6.15
2023-01-28T08:48:02.124Z,6.28
2023-01-28T08:50:30.152Z,7.90
2023-01-28T08:52:57.348Z,6.07
2023-01-28T08:55:24.288Z,5.95
2023-01-28T08:57:50.676Z,6.18
2023-01-28T09:00:17.507Z,6.57
2023-01-28T09:02:44.314Z,6.75
2023-01-28T09:05:11.023Z,7.43
2023-01-28T09:07:38.199Z,6.32
2023-01-28T09:10:05.333Z,6.30
2023-01-28T09:12:32.011Z,5.43
2023-01-28T09:14:58.486Z,6.40
2023-01-28T09:17:25.025Z,6.88
2023-01-28T09:19:51.573Z,6.07
2023-01-28T09:22:17.946Z,6.53
2023-01-28T09:24:44.333Z,5.80
2023-01-28T09:27:10.914Z,6.15
2023-01-28T09:29:38.049Z,6.15
2023-01-28T09:32:05.169Z,6.22
2023-01-28T09:34:32.042Z,6.30
2023-01-28T09:36:58.457Z,6.55
2023-01-28T09:39:25.841Z,6.45
2023-01-28T09:41:54.002Z,6.63
2023-01-28T09:44:39.303Z,7.00
2023-01-28T09:47:09.527Z,6.43
2023-01-28T09:49:38.992Z,6.93
2023-01-28T09:52:05.439Z,6.88
2023-01-28T09:54:38.153Z,6.63
2023-01-28T09:57:07.070Z,7.03
2023-01-28T09:59:35.362Z,7.00
2023-01-28T10:02:16.797Z,7.35
2023-01-28T10:05:01.967Z,6.30
2023-01-28T10:07:28.332Z,6.68
2023-01-28T10:10:03.763Z,6.68
2023-01-28T10:12:30.415Z,7.07
2023-01-28T10:15:05.552Z,7.43
2023-01-28T10:20:16.891Z,6.97
2023-01-28T10:22:43.570Z,8.05
2023-01-28T10:25:18.715Z,7.70
2023-01-28T10:30:17.787Z,6.95
2023-01-28T10:32:48.950Z,7.40
2023-01-28T10:35:15.373Z,7.40
2023-01-28T10:37:41.931Z,7.40
2023-01-28T10:40:14.295Z,8.65
2023-01-28T10:42:40.803Z,7.85
2023-01-28T10:45:10.250Z,7.32
2023-01-28T10:47:44.971Z,6.95
2023-01-28T10:50:16.300Z,7.38
2023-01-28T10:52:52.955Z,7.22
2023-01-28T10:55:19.398Z,7.97
2023-01-28T10:57:45.819Z,7.35
2023-01-28T11:00:22.000Z,5.50
2023-01-28T11:02:49.356Z,6.13
2023-01-28T11:05:21.078Z,7.03
2023-01-28T11:07:50.848Z,5.57
2023-01-28T11:10:26.487Z,7.53
2023-01-28T11:12:56.766Z,6.90
2023-01-28T11:15:23.128Z,9.00
2023-01-28T11:17:53.480Z,7.53
2023-01-28T11:20:21.636Z,9.60
2023-01-28T11:22:48.740Z,8.38
2023-01-28T11:25:27.251Z,7.57
2023-01-28T11:27:54.436Z,9.05
2023-01-28T11:30:22.204Z,8.13
2023-01-28T11:33:03.340Z,7.25
2023-01-28T11:35:30.880Z,7.45
2023-01-28T11:37:58.676Z,7.38
2023-01-28T11:40:25.943Z,7.88
2023-01-28T11:42:53.282Z,6.88
2023-01-28T11:45:24.522Z,8.63
2023-01-28T11:48:03.320Z,6.90
2023-01-28T11:50:33.666Z,6.82
2023-01-28T11:53:06.781Z,7.30
2023-01-28T11:55:40.369Z,6.45
2023-01-28T11:58:19.055Z,7.28
2023-01-28T12:00:51.530Z,7.28
2023-01-28T12:03:28.096Z,6.57
2023-01-28T12:05:58.613Z,7.82
2023-01-28T12:09:06.803Z,6.18
2023-01-28T12:12:11.670Z,8.00
2023-01-28T12:14:56.607Z,6.43
2023-01-28T12:17:24.813Z,6.07
2023-01-28T12:20:21.760Z,6.38
2023-01-28T12:22:53.792Z,5.78
2023-01-28T12:25:38.805Z,6.70
2023-01-28T12:28:24.205Z,6.65
2023-01-28T12:30:59.838Z,6.68
2023-01-28T12:33:37.799Z,6.95
2023-01-28T12:36:22.736Z,4.82
2023-01-28T12:38:49.377Z,3.95
2023-01-28T12:41:20.501Z,4.32
2023-01-28T12:43:49.941Z,3.97
2023-01-28T12:46:31.500Z,4.50
2023-01-28T12:49:14.750Z,3.78
2023-01-28T12:51:52.342Z,4.10
2023-01-28T12:54:28.185Z,4.15
2023-01-28T12:56:55.683Z,4.35
2023-01-28T12:59:28.464Z,5.25
2023-01-28T13:02:06.688Z,5.25
2023-01-28T13:04:39.786Z,4.10
2023-01-28T13:07:21.297Z,4.95
2023-01-28T13:10:13.937Z,4.15
2023-01-28T13:12:41.562Z,4.03
2023-01-28T13:15:16.532Z,4.03
2023-01-28T13:20:16.324Z,3.20
2023-01-28T13:22:44.092Z,3.38
2023-01-28T13:25:20.038Z,3.70
2023-01-28T13:27:57.070Z,4.00
2023-01-28T13:30:28.434Z,3.88
2023-01-28T13:32:56.158Z,3.80
2023-01-28T13:35:38.709Z,3.40
2023-01-28T13:38:19.017Z,3.13
2023-01-28T13:40:53.917Z,3.92
2023-01-28T13:43:27.262Z,3.58
2023-01-28T13:46:01.709Z,4.43
2023-01-28T13:48:40.550Z,3.90
2023-01-28T13:51:18.648Z,3.55
2023-01-28T13:54:02.507Z,4.32
2023-01-28T13:56:31.056Z,3.55
2023-01-28T13:59:16.618Z,4.07
2023-01-28T14:04:24.414Z,4.07
2023-01-28T14:06:56.856Z,5.05
2023-01-28T14:09:41.683Z,4.90
2023-01-28T14:12:11.190Z,4.63
2023-01-28T14:14:56.230Z,4.43
2023-01-28T14:17:34.796Z,4.30
2023-01-28T14:20:01.631Z,5.63
2023-01-28T14:22:28.056Z,4.32
2023-01-28T14:24:55.096Z,3.95
2023-01-28T14:27:28.157Z,4.32
2023-01-28T14:30:04.195Z,3.65
2023-01-28T14:32:31.535Z,3.92
2023-01-28T14:34:59.784Z,2.80
2023-01-28T14:37:29.976Z,3.67
2023-01-28T14:39:58.030Z,3.00
2023-01-28T14:42:25.724Z,4.05
2023-01-28T14:45:10.818Z,3.80
2023-01-28T14:47:37.136Z,3.63
2023-01-28T14:50:31.119Z,4.00
2023-01-28T14:53:00.483Z,4.43
2023-01-28T14:55:38.018Z,4.40
2023-01-28T14:58:06.549Z,4.45
2023-01-28T15:00:34.250Z,5.15
2023-01-28T15:03:01.859Z,4.05
2023-01-28T15:05:29.012Z,4.38
2023-01-28T15:07:56.099Z,4.28
2023-01-28T15:10:25.355Z,5.13
2023-01-28T15:12:54.029Z,4.70
2023-01-28T15:15:58.069Z,4.78
2023-01-28T15:18:35.434Z,4.85
2023-01-28T15:21:02.144Z,5.20
2023-01-28T15:23:36.400Z,5.72
2023-01-28T15:26:19.886Z,4.77
2023-01-28T15:28:47.521Z,4.40
2023-01-28T15:31:34.862Z,5.45
2023-01-28T15:34:01.241Z,5.22
2023-01-28T15:36:28.135Z,5.10
2023-01-28T15:38:54.912Z,5.43
2023-01-28T15:41:23.085Z,4.47
2023-01-28T15:43:50.564Z,5.28
2023-01-28T15:46:16.951Z,5.38
2023-01-28T15:48:45.812Z,5.13
2023-01-28T15:51:20.195Z,5.72
2023-01-28T15:53:47.793Z,5.38
2023-01-28T15:56:15.201Z,6.47
2023-01-28T15:58:41.906Z,6.22
2023-01-28T16:01:08.438Z,6.80
2023-01-28T16:03:36.478Z,7.95
2023-01-28T16:06:08.558Z,9.60
2023-01-28T16:08:48.237Z,6.65
2023-01-28T16:11:21.711Z,6.40
2023-01-28T16:13:48.178Z,5.55
2023-01-28T16:16:14.978Z,5.10
2023-01-28T16:18:50.566Z,5.72
2023-01-28T16:21:25.269Z,5.97
2023-01-28T16:24:05.189Z,5.28
2023-01-28T16:26:33.065Z,5.97
2023-01-28T16:29:01.065Z,5.53
2023-01-28T16:31:27.867Z,6.63
2023-01-28T16:33:54.370Z,5.20
2023-01-28T16:36:20.741Z,4.60
2023-01-28T16:38:47.223Z,4.85
2023-01-28T16:41:28.151Z,4.50
2023-01-28T16:43:54.666Z,4.32
2023-01-28T16:46:21.101Z,5.10
2023-01-28T16:48:47.691Z,6.30
2023-01-28T16:51:18.084Z,5.70
2023-01-28T16:53:45.992Z,5.32
2023-01-28T16:56:35.803Z,4.60
2023-01-28T16:59:02.555Z,5.15
2023-01-28T17:01:28.967Z,4.57
2023-01-28T17:03:56.579Z,4.80
2023-01-28T17:06:23.053Z,4.38
2023-01-28T17:08:49.539Z,5.20
2023-01-28T17:11:15.985Z,4.80
2023-01-28T17:13:42.357Z,5.60
2023-01-28T17:16:08.813Z,5.20
2023-01-28T17:18:35.213Z,5.15
2023-01-28T17:21:06.808Z,5.97
2023-01-28T17:23:33.728Z,6.25
2023-01-28T17:26:03.977Z,7.68
2023-01-28T17:28:30.552Z,7.40
2023-01-28T17:30:57.015Z,7.45
2023-01-28T17:33:23.422Z,8.13
2023-01-28T17:35:49.828Z,8.15
2023-01-28T17:38:16.804Z,7.10
2023-01-28T17:40:43.239Z,6.57
2023-01-28T17:43:09.925Z,7.38
2023-01-28T17:45:36.381Z,8.85
2023-01-28T17:48:02.883Z,7.75
2023-01-28T17:50:29.561Z,9.00
2023-01-28T17:52:56.791Z,6.85
2023-01-28T17:55:24.436Z,10.00
2023-01-28T17:57:51.056Z,9.27
2023-01-28T18:00:17.848Z,7.32
2023-01-28T18:02:44.195Z,7.18
2023-01-28T18:05:10.540Z,8.30
2023-01-28T18:07:37.017Z,8.00
2023-01-28T18:10:03.483Z,8.00
2023-01-28T18:12:30.082Z,7.85
2023-01-28T18:14:56.471Z,7.13
2023-01-28T18:17:26.973Z,5.68
2023-01-28T18:19:53.355Z,7.63
2023-01-28T18:22:19.737Z,7.03
2023-01-28T18:24:46.180Z,7.28
2023-01-28T18:27:12.529Z,7.15
2023-01-28T18:29:38.946Z,6.93
2023-01-28T18:32:05.623Z,6.45
2023-01-28T18:34:32.392Z,6.60
2023-01-28T18:36:59.474Z,5.82
2023-01-28T18:39:27.184Z,7.00
2023-01-28T18:41:54.803Z,6.53
2023-01-28T18:44:23.057Z,5.85
2023-01-28T18:46:49.856Z,6.13
2023-01-28T18:49:16.423Z,7.25
2023-01-28T18:51:43.844Z,6.78
2023-01-28T18:54:13.761Z,6.93
2023-01-28T18:56:41.585Z,6.70
2023-01-28T18:59:10.088Z,6.47
2023-01-28T19:01:36.487Z,5.65
2023-01-28T19:04:03.063Z,7.32
2023-01-28T19:06:30.219Z,5.80
2023-01-28T19:09:00.965Z,6.05
2023-01-28T19:11:28.411Z,6.72
2023-01-28T19:13:54.830Z,5.72
2023-01-28T19:16:21.921Z,6.45
2023-01-28T19:18:53.315Z,5.30
2023-01-28T19:21:20.328Z,6.22
2023-01-28T19:23:50.109Z,5.63
2023-01-28T19:26:22.251Z,5.97
2023-01-28T19:28:51.790Z,7.95
2023-01-28T19:31:19.762Z,6.70
2023-01-28T19:33:46.616Z,7.63
2023-01-28T19:36:13.730Z,6.78
2023-01-28T19:38:41.019Z,7.55
2023-01-28T19:41:08.104Z,7.35
2023-01-28T19:43:34.615Z,7.75
2023-01-28T19:46:02.447Z,8.18
2023-01-28T19:48:29.482Z,8.43
2023-01-28T19:50:56.241Z,9.05
2023-01-28T19:53:22.875Z,10.20
2023-01-28T19:55:52.010Z,8.88
2023-01-28T19:58:18.974Z,10.10
2023-01-28T20:00:45.471Z,10.38
2023-01-28T20:03:12.734Z,9.65
2023-01-28T20:05:39.453Z,8.32
2023-01-28T20:08:05.794Z,10.65
2023-01-28T20:10:32.542Z,9.48
2023-01-28T20:12:59.029Z,9.43
2023-01-28T20:15:25.503Z,9.73
2023-01-28T20:17:51.938Z,10.15
2023-01-28T20:20:18.363Z,11.32
2023-01-28T20:22:44.893Z,10.50
2023-01-28T20:25:11.490Z,10.75
2023-01-28T20:27:37.916Z,10.88
2023-01-28T20:30:04.512Z,11.32
2023-01-28T20:32:31.076Z,11.85
2023-01-28T20:34:57.562Z,11.55
2023-01-28T20:37:23.964Z,11.27
2023-01-28T20:39:50.423Z,10.85
2023-01-28T20:42:16.828Z,10.82
2023-01-28T20:44:43.224Z,10.82
2023-01-28T20:47:09.673Z,12.18
2023-01-28T20:49:36.065Z,11.80
2023-01-28T20:52:02.567Z,11.80
2023-01-28T20:54:29.167Z,11.32
2023-01-28T20:56:57.321Z,11.43
2023-01-28T20:59:24.118Z,11.15
2023-01-28T21:01:50.606Z,11.10
2023-01-28T21:04:17.472Z,11.70
2023-01-28T21:06:43.899Z,10.50
2023-01-28T21:09:10.471Z,11.43
2023-01-28T21:11:36.911Z,9.90
2023-01-28T21:14:03.552Z,10.23
2023-01-28T21:16:30.026Z,10.80
2023-01-28T21:18:56.699Z,10.57
2023-01-28T21:21:24.567Z,10.65
2023-01-28T21:23:51.131Z,11.18
2023-01-28T21:26:17.622Z,10.25
2023-01-28T21:28:44.616Z,9.20
2023-01-28T21:31:17.941Z,8.77
2023-01-28T21:33:47.941Z,9.02
2023-01-28T21:36:14.931Z,8.70
2023-01-28T21:38:41.729Z,9.00
2023-01-28T21:41:08.816Z,8.85
2023-01-28T21:43:35.366Z,9.63
2023-01-28T21:46:01.993Z,8.63
2023-01-28T21:48:28.513Z,8.68
2023-01-28T21:51:14.245Z,8.77
2023-01-28T21:53:41.215Z,9.20
2023-01-28T21:56:08.345Z,9.10
2023-01-28T21:58:53.885Z,10.38
2023-01-28T22:03:47.159Z,9.48
2023-01-28T22:06:13.551Z,9.45
2023-01-28T22:08:40.031Z,11.27
2023-01-28T22:11:06.933Z,9.20
2023-01-28T22:13:33.612Z,10.35
2023-01-28T22:16:00.203Z,10.50
2023-01-28T22:18:26.830Z,10.23
2023-01-28T22:21:00.133Z,11.73
2023-01-28T22:23:26.881Z,10.32
2023-01-28T22:25:54.171Z,11.52
2023-01-28T22:28:20.625Z,10.82
2023-01-28T22:30:47.132Z,11.60
2023-01-28T22:33:13.643Z,10.50
2023-01-28T22:35:40.020Z,12.18
2023-01-28T22:38:06.409Z,11.43
2023-01-28T22:40:33.822Z,11.63
2023-01-28T22:43:00.506Z,12.63
2023-01-28T22:45:26.907Z,12.43
2023-01-28T22:47:53.255Z,12.25
2023-01-28T22:50:19.930Z,12.88
2023-01-28T22:52:49.240Z,12.32
2023-01-28T22:55:15.985Z,12.07
2023-01-28T22:57:42.355Z,11.32
2023-01-28T23:00:11.831Z,11.98
2023-01-28T23:02:38.997Z,12.85
2023-01-28T23:05:05.968Z,13.50
2023-01-28T23:07:32.595Z,12.63
2023-01-28T23:09:59.030Z,13.05
2023-01-28T23:12:25.368Z,12.82
2023-01-28T23:15:10.197Z,11.15
2023-01-28T23:17:54.999Z,12.20
2023-01-28T23:20:39.811Z,12.38
2023-01-28T23:23:27.695Z,13.43
2023-01-28T23:25:54.029Z,12.80
2023-01-28T23:28:20.386Z,15.15
2023-01-28T23:30:46.863Z,12.93
2023-01-28T23:33:13.247Z,12.85
2023-01-28T23:35:39.666Z,13.55
2023-01-28T23:38:05.998Z,12.25
2023-01-28T23:40:32.334Z,14.30
2023-01-28T23:42:58.773Z,13.38
2023-01-28T23:45:25.266Z,14.07
2023-01-28T23:47:52.447Z,13.70
2023-01-28T23:50:19.149Z,13.02
2023-01-28T23:52:45.714Z,13.05
2023-01-28T23:55:12.114Z,13.63
2023-01-28T23:57:38.581Z,14.25
